Cedar Point, Texas
Current Conditions -  °F | °C
As of 4:50 AM on Friday 24 Oct 2014 (Local Time) from KEFD Reporting Station
Clear Clear  
Wind Chill: 61°   Ceiling: Unl
Heat Index: 61°   Visibility: 10mi
Dew Point: 57°   Wind: 1mph
Humidity: 88%   Direction: 20°NNE
Pressure: 30.12"   Gusts: NA
Location:  29.7803°N, 94.894°W
Report Text: KEFD 240950Z 02001KT 10SM CLR 16/14 A3012
Loading
Personal Weather Stations






























Interactive Weather Map
Tropical Storm Tracking
New forecast layout! Learn more

10-Day Weather Forecast

Advertisements
Track Severe Weather on mobile